createdAt,value
2023-04-10T00:05:46.693Z,22.70
2023-04-10T00:11:39.734Z,22.83
2023-04-10T00:17:34.194Z,20.77
2023-04-10T00:23:27.381Z,24.50
2023-04-10T00:29:20.949Z,24.00
2023-04-10T00:35:15.974Z,23.17
2023-04-10T00:41:09.085Z,20.33
2023-04-10T00:47:02.625Z,22.70
2023-04-10T00:52:58.498Z,22.37
2023-04-10T00:58:51.661Z,21.50
2023-04-10T01:04:45.588Z,23.33
2023-04-10T01:10:48.177Z,19.87
2023-04-10T01:16:49.998Z,21.83
2023-04-10T01:22:56.087Z,24.90
2023-04-10T01:29:01.660Z,26.20
2023-04-10T01:34:58.557Z,23.40
2023-04-10T01:40:54.756Z,22.80
2023-04-10T01:46:56.907Z,22.60
2023-04-10T01:52:53.014Z,22.30
2023-04-10T01:58:49.066Z,27.03
2023-04-10T02:04:44.378Z,25.63
2023-04-10T02:10:42.502Z,22.53
2023-04-10T02:16:39.767Z,23.03
2023-04-10T02:22:35.172Z,23.07
2023-04-10T02:28:28.628Z,20.90
2023-04-10T02:34:22.056Z,21.80
2023-04-10T02:40:16.417Z,25.97
2023-04-10T02:46:19.942Z,21.03
2023-04-10T02:52:13.654Z,21.43
2023-04-10T02:58:08.749Z,22.67
2023-04-10T03:04:04.402Z,25.30
2023-04-10T03:10:02.885Z,22.30
2023-04-10T03:15:57.810Z,21.43
2023-04-10T03:21:51.379Z,21.87
2023-04-10T03:27:45.053Z,23.00
2023-04-10T03:33:40.033Z,22.80
2023-04-10T03:39:33.942Z,24.30
2023-04-10T03:45:27.005Z,21.67
2023-04-10T03:51:23.340Z,22.50
2023-04-10T03:57:21.476Z,23.33
2023-04-10T04:03:16.760Z,22.00
2023-04-10T04:09:14.557Z,24.10
2023-04-10T04:15:15.874Z,24.10
2023-04-10T04:21:18.111Z,23.70
2023-04-10T04:27:51.199Z,21.10
2023-04-10T04:34:10.507Z,24.63
2023-04-10T04:40:07.522Z,18.90
2023-04-10T04:46:26.438Z,21.60
2023-04-10T04:52:37.508Z,22.27
2023-04-10T04:58:50.792Z,25.77
2023-04-10T05:05:08.710Z,23.57
2023-04-10T05:11:12.966Z,22.47
2023-04-10T05:17:39.998Z,21.23
2023-04-10T05:23:53.138Z,26.67
2023-04-10T05:30:11.381Z,21.30
2023-04-10T05:36:10.461Z,22.63
2023-04-10T05:42:18.993Z,23.30
2023-04-10T05:48:26.273Z,22.90
2023-04-10T05:54:41.065Z,23.00
2023-04-10T06:00:54.186Z,23.70
2023-04-10T06:07:02.319Z,20.67
2023-04-10T06:13:24.619Z,21.47
2023-04-10T06:19:22.964Z,22.50
2023-04-10T06:25:17.496Z,23.80
2023-04-10T06:31:10.588Z,23.70
2023-04-10T06:37:06.860Z,22.63
2023-04-10T06:43:00.634Z,23.70
2023-04-10T06:49:00.811Z,21.77
2023-04-10T06:54:55.622Z,23.47
2023-04-10T07:00:48.675Z,20.57
2023-04-10T07:06:41.695Z,24.33
2023-04-10T07:12:36.101Z,22.30
2023-04-10T07:18:29.138Z,19.57
2023-04-10T07:24:22.379Z,22.70
2023-04-10T07:30:16.783Z,21.43
2023-04-10T07:36:10.387Z,20.60
2023-04-10T07:42:03.641Z,18.73
2023-04-10T07:47:59.608Z,20.93
2023-04-10T07:53:52.905Z,19.53
2023-04-10T07:59:46.120Z,19.63
2023-04-10T08:05:40.533Z,18.00
2023-04-10T08:11:38.259Z,18.90
2023-04-10T08:17:31.967Z,19.80
2023-04-10T08:23:26.330Z,18.27
2023-04-10T08:29:19.386Z,17.30
2023-04-10T08:35:12.397Z,19.23
2023-04-10T08:41:07.597Z,21.50
2023-04-10T08:47:01.977Z,17.60
2023-04-10T08:52:56.553Z,18.90
2023-04-10T08:58:53.017Z,18.17
2023-04-10T09:04:49.647Z,15.20
2023-04-10T09:10:43.247Z,17.13
2023-04-10T09:16:37.634Z,18.40
2023-04-10T09:22:32.172Z,17.07
2023-04-10T09:28:25.252Z,16.27
2023-04-10T09:34:21.821Z,15.50
2023-04-10T09:40:22.618Z,15.13
2023-04-10T09:46:28.601Z,14.73
2023-04-10T09:52:26.503Z,14.17
2023-04-10T09:58:20.155Z,12.83
2023-04-10T10:04:17.543Z,12.50
2023-04-10T10:10:13.606Z,11.77
2023-04-10T10:16:12.538Z,11.73
2023-04-10T10:22:08.962Z,12.87
2023-04-10T10:28:05.601Z,9.83
2023-04-10T10:33:59.027Z,10.47
2023-04-10T10:40:00.257Z,8.53
2023-04-10T10:46:00.193Z,8.17
2023-04-10T10:51:53.475Z,9.63
2023-04-10T10:57:52.143Z,7.73
2023-04-10T11:03:47.225Z,8.23
2023-04-10T11:09:51.956Z,7.73
2023-04-10T11:15:45.835Z,8.07
2023-04-10T11:22:07.753Z,8.63
2023-04-10T11:28:01.764Z,7.80
2023-04-10T11:34:03.285Z,8.83
2023-04-10T11:40:06.960Z,8.07
2023-04-10T11:46:04.984Z,6.30
2023-04-10T11:51:58.407Z,6.47
2023-04-10T11:57:53.021Z,6.20
2023-04-10T12:03:46.786Z,5.10
2023-04-10T12:09:40.817Z,7.33
2023-04-10T12:15:35.629Z,4.60
2023-04-10T12:21:28.879Z,4.87
2023-04-10T12:27:23.255Z,4.40
2023-04-10T12:33:22.475Z,4.70
2023-04-10T12:39:24.756Z,4.20
2023-04-10T12:45:17.821Z,4.10
2023-04-10T12:51:12.517Z,4.80
2023-04-10T12:57:05.549Z,4.57
2023-04-10T13:02:58.822Z,4.90
2023-04-10T13:08:53.907Z,5.00
2023-04-10T13:14:47.694Z,5.10
2023-04-10T13:20:42.239Z,4.63
2023-04-10T13:26:36.855Z,4.93
2023-04-10T13:32:30.150Z,5.20
2023-04-10T13:38:23.370Z,4.80
2023-04-10T13:44:17.826Z,5.37
2023-04-10T13:50:11.825Z,5.00
2023-04-10T13:56:05.228Z,5.60
2023-04-10T14:01:59.652Z,6.20
2023-04-10T14:07:57.004Z,6.70
2023-04-10T14:13:50.279Z,5.87
2023-04-10T14:19:46.517Z,7.60
2023-04-10T14:25:39.779Z,7.00
2023-04-10T14:31:33.051Z,8.63
2023-04-10T14:37:28.069Z,8.27
2023-04-10T14:43:21.056Z,7.30
2023-04-10T14:49:15.116Z,7.50
2023-04-10T14:55:10.508Z,7.63
2023-04-10T15:01:03.761Z,6.97
2023-04-10T15:06:56.999Z,7.77
2023-04-10T15:12:51.373Z,8.90
2023-04-10T15:18:47.719Z,7.20
2023-04-10T15:24:49.776Z,6.60
2023-04-10T15:30:46.256Z,5.50
2023-04-10T15:36:39.290Z,8.07
2023-04-10T15:42:32.530Z,5.30
2023-04-10T15:48:27.810Z,4.83
2023-04-10T15:54:20.858Z,4.80
2023-04-10T16:00:15.785Z,5.83
2023-04-10T16:06:10.775Z,6.77
2023-04-10T16:12:04.026Z,7.80
2023-04-10T16:17:57.831Z,8.57
2023-04-10T16:23:52.565Z,6.63
2023-04-10T16:29:46.166Z,8.73
2023-04-10T16:35:39.469Z,8.43
2023-04-10T16:41:33.878Z,7.90
2023-04-10T16:47:27.028Z,6.67
2023-04-10T16:53:20.100Z,11.33
2023-04-10T16:59:14.756Z,6.20
2023-04-10T17:05:08.234Z,7.40
2023-04-10T17:11:01.259Z,7.10
2023-04-10T17:16:55.901Z,6.90
2023-04-10T17:22:49.080Z,7.53
2023-04-10T17:28:44.520Z,6.53
2023-04-10T17:34:38.871Z,9.70
2023-04-10T17:40:32.994Z,6.87
2023-04-10T17:46:26.017Z,6.70
2023-04-10T17:52:20.615Z,11.23
2023-04-10T17:58:14.009Z,6.53
2023-04-10T18:04:07.241Z,8.20
2023-04-10T18:10:01.685Z,7.30
2023-04-10T18:15:54.917Z,6.50
2023-04-10T18:21:48.027Z,6.73
2023-04-10T18:27:51.531Z,7.37
2023-04-10T18:33:45.613Z,6.97
2023-04-10T18:39:38.940Z,8.13
2023-04-10T18:45:34.876Z,7.77
2023-04-10T18:51:27.936Z,7.70
2023-04-10T18:57:20.963Z,9.50
2023-04-10T19:03:16.242Z,9.40
2023-04-10T19:09:09.849Z,10.70
2023-04-10T19:15:02.976Z,8.60
2023-04-10T19:20:59.216Z,7.70
2023-04-10T19:26:55.184Z,8.77
2023-04-10T19:32:49.704Z,8.70
2023-04-10T19:38:48.897Z,11.47
2023-04-10T19:44:42.354Z,10.27
2023-04-10T19:50:35.645Z,11.93
2023-04-10T19:56:30.705Z,12.10
2023-04-10T20:02:23.982Z,9.60
2023-04-10T20:08:17.131Z,7.83
2023-04-10T20:14:12.189Z,12.00
2023-04-10T20:20:05.693Z,8.30
2023-04-10T20:25:58.977Z,8.27
2023-04-10T20:31:53.613Z,8.40
2023-04-10T20:37:46.906Z,11.03
2023-04-10T20:43:41.073Z,16.70
2023-04-10T20:49:37.305Z,9.53
2023-04-10T20:55:30.680Z,8.27
2023-04-10T21:01:23.696Z,7.73
2023-04-10T21:07:18.074Z,6.77
2023-04-10T21:13:11.578Z,7.27
2023-04-10T21:19:04.809Z,6.50
2023-04-10T21:24:59.288Z,6.63
2023-04-10T21:30:52.495Z,5.47
2023-04-10T21:36:45.975Z,6.30
2023-04-10T21:42:40.415Z,6.20
2023-04-10T21:48:33.675Z,6.87
2023-04-10T21:54:26.930Z,5.70
2023-04-10T22:00:23.051Z,5.23
2023-04-10T22:06:16.540Z,4.80
2023-04-10T22:12:09.772Z,4.30
2023-04-10T22:18:04.736Z,4.33
2023-04-10T22:23:58.206Z,4.20
2023-04-10T22:30:02.104Z,4.23
2023-04-10T22:35:57.445Z,4.30
2023-04-10T22:41:51.037Z,4.00
2023-04-10T22:47:44.038Z,4.10
2023-04-10T22:53:39.013Z,3.87
2023-04-10T22:59:32.445Z,4.30
2023-04-10T23:05:25.932Z,3.70
2023-04-10T23:11:20.716Z,4.77
2023-04-10T23:17:14.140Z,4.27
2023-04-10T23:23:07.750Z,4.80
2023-04-10T23:29:02.278Z,6.60
2023-04-10T23:34:55.319Z,3.50
2023-04-10T23:40:49.024Z,3.50
2023-04-10T23:46:43.882Z,3.50
2023-04-10T23:52:37.368Z,4.13
2023-04-10T23:58:30.991Z,3.83
